Time;durP1;ratioP1;P1;durP2;ratioP2;P2;SDS_P1;SDS_P2;PMS_P1;PMS_P2;Temp;Humidity;BMP_temperature;BMP_pressure;BME280_temperature;BME280_humidity;BME280_pressure;Samples;Min_cycle;Max_cycle;Signal;HPM_P1;HPM_P2
2023/04/27 00:00:34;;;;;;;5.60;3.70;;;4.70;99.90;;;;;;5097890;28;20406;-76
2023/04/27 00:03:04;;;;;;;6.43;3.60;;;4.70;99.90;;;;;;5070465;28;20497;-76
2023/04/27 00:05:33;;;;;;;6.55;3.88;;;4.60;99.90;;;;;;5073251;28;20425;-77
2023/04/27 00:07:58;;;;;;;6.90;3.92;;;4.70;99.90;;;;;;5092851;28;20462;-76
2023/04/27 00:10:24;;;;;;;8.03;4.77;;;4.60;99.90;;;;;;5089097;28;20418;-76
2023/04/27 00:12:49;;;;;;;8.70;4.20;;;4.60;99.90;;;;;;5087649;28;20413;-76
2023/04/27 00:15:15;;;;;;;8.02;4.65;;;4.60;99.90;;;;;;5088034;28;20406;-76
2023/04/27 00:17:42;;;;;;;8.70;5.00;;;4.60;99.90;;;;;;5087598;28;20437;-76
2023/04/27 00:20:10;;;;;;;8.52;5.07;;;4.60;99.90;;;;;;5087050;28;20410;-76
2023/04/27 00:22:39;;;;;;;11.90;5.82;;;4.60;99.90;;;;;;5087836;28;20414;-76
2023/04/27 00:25:06;;;;;;;10.45;6.43;;;4.50;99.90;;;;;;5087028;28;20398;-76
2023/04/27 00:27:31;;;;;;;10.07;6.00;;;4.60;99.90;;;;;;5087674;28;20472;-76
2023/04/27 00:29:57;;;;;;;9.80;6.07;;;4.50;99.90;;;;;;5086617;28;20409;-76
2023/04/27 00:32:22;;;;;;;9.53;6.00;;;4.50;99.90;;;;;;5088145;28;20406;-76
2023/04/27 00:34:48;;;;;;;11.02;6.05;;;4.50;99.90;;;;;;5070908;28;20939;-76
2023/04/27 00:37:14;;;;;;;8.67;5.77;;;4.50;99.90;;;;;;5085861;28;20421;-76
2023/04/27 00:39:39;;;;;;;9.68;4.95;;;4.50;99.90;;;;;;5086905;28;20406;-76
2023/04/27 00:42:10;;;;;;;10.33;5.20;;;4.50;99.90;;;;;;5086815;28;20517;-76
2023/04/27 00:44:35;;;;;;;7.95;4.78;;;4.50;99.90;;;;;;5087677;28;20433;-76
2023/04/27 00:47:01;;;;;;;7.53;4.80;;;4.60;99.90;;;;;;5100550;28;20907;-76
2023/04/27 00:49:27;;;;;;;10.18;4.93;;;4.60;99.90;;;;;;5086845;28;20916;-76
2023/04/27 00:51:54;;;;;;;6.30;4.20;;;4.70;99.90;;;;;;5086991;28;20523;-76
2023/04/27 00:54:21;;;;;;;7.47;4.55;;;4.70;99.90;;;;;;5099555;28;20423;-76
2023/04/27 00:56:50;;;;;;;8.50;4.50;;;4.70;99.90;;;;;;5107686;28;20407;-74
2023/04/27 00:59:17;;;;;;;7.78;4.10;;;4.70;99.90;;;;;;5106923;28;20419;-74
2023/04/27 01:01:43;;;;;;;5.88;3.60;;;4.80;99.90;;;;;;5106113;28;20433;-74
2023/04/27 01:04:09;;;;;;;9.27;4.13;;;4.80;99.90;;;;;;5090296;28;20940;-75
2023/04/27 01:06:35;;;;;;;8.07;4.35;;;4.90;99.90;;;;;;5107693;28;20396;-74
2023/04/27 01:09:00;;;;;;;7.30;4.33;;;4.90;99.90;;;;;;5106756;28;20906;-75
2023/04/27 01:11:26;;;;;;;6.85;4.45;;;4.90;99.90;;;;;;5100430;28;20859;-75
2023/04/27 01:13:53;;;;;;;6.80;4.10;;;4.80;99.90;;;;;;5087242;28;20402;-75
2023/04/27 01:16:19;;;;;;;10.60;4.22;;;4.90;99.90;;;;;;5086430;28;20796;-76
2023/04/27 01:18:45;;;;;;;7.22;3.95;;;4.90;99.90;;;;;;5086642;28;20458;-75
2023/04/27 01:21:11;;;;;;;6.05;3.80;;;4.90;99.90;;;;;;5087823;28;20515;-75
2023/04/27 01:23:37;;;;;;;7.35;4.00;;;4.90;99.90;;;;;;5070069;28;20471;-75
2023/04/27 01:26:02;;;;;;;7.67;3.97;;;4.90;99.90;;;;;;5086235;28;20410;-75
2023/04/27 01:28:28;;;;;;;6.47;4.30;;;4.90;99.90;;;;;;5089693;28;20441;-75
2023/04/27 01:30:54;;;;;;;8.65;4.72;;;4.90;99.90;;;;;;5086222;28;20433;-75
2023/04/27 01:33:20;;;;;;;7.23;4.50;;;4.90;99.90;;;;;;5086063;28;20402;-75
2023/04/27 01:35:45;;;;;;;7.65;4.40;;;4.90;99.90;;;;;;5071660;28;20574;-75
2023/04/27 01:38:12;;;;;;;6.18;4.20;;;4.90;99.90;;;;;;5088276;28;20449;-75
2023/04/27 01:40:37;;;;;;;6.45;4.30;;;4.90;99.90;;;;;;5070369;28;20421;-75
2023/04/27 01:43:03;;;;;;;7.78;4.32;;;4.90;99.90;;;;;;5087723;28;20413;-75
2023/04/27 01:45:29;;;;;;;6.00;4.45;;;4.80;99.90;;;;;;5086423;28;20456;-75
2023/04/27 01:47:55;;;;;;;6.63;4.53;;;4.80;99.90;;;;;;5069783;28;20438;-75
2023/04/27 01:50:21;;;;;;;6.00;4.00;;;4.80;99.90;;;;;;5103350;28;20409;-75
2023/04/27 01:52:46;;;;;;;9.90;5.13;;;4.80;99.90;;;;;;5102749;28;20755;-75
2023/04/27 01:55:12;;;;;;;8.10;4.60;;;4.70;99.90;;;;;;5095796;28;20427;-75
2023/04/27 01:57:38;;;;;;;6.37;4.73;;;4.70;99.90;;;;;;5111443;28;20412;-75
2023/04/27 02:00:04;;;;;;;8.43;4.73;;;4.70;99.90;;;;;;5097627;28;20461;-75
2023/04/27 02:02:30;;;;;;;6.43;4.78;;;4.60;99.90;;;;;;5109939;28;20423;-76
2023/04/27 02:04:55;;;;;;;9.95;4.82;;;4.60;99.90;;;;;;5096450;28;21143;-76
2023/04/27 02:07:21;;;;;;;9.00;4.82;;;4.60;99.90;;;;;;5097249;28;20433;-77
2023/04/27 02:09:47;;;;;;;7.27;4.27;;;4.50;99.90;;;;;;5096065;28;20404;-77
2023/04/27 02:12:13;;;;;;;8.00;4.90;;;4.50;99.90;;;;;;5098627;28;20406;-76
2023/04/27 02:14:38;;;;;;;7.15;4.53;;;4.50;99.90;;;;;;5095213;28;20400;-76
2023/04/27 02:17:04;;;;;;;6.40;4.47;;;4.40;99.90;;;;;;5096417;28;20405;-76
2023/04/27 02:19:30;;;;;;;7.10;4.63;;;4.40;99.90;;;;;;5072485;28;20409;-77
2023/04/27 02:21:55;;;;;;;6.23;4.27;;;4.40;99.90;;;;;;5089068;28;20413;-76
2023/04/27 02:24:21;;;;;;;7.13;4.40;;;4.40;99.90;;;;;;5091190;28;21128;-75
2023/04/27 02:26:46;;;;;;;6.80;4.43;;;4.40;99.90;;;;;;5090872;28;20432;-75
2023/04/27 02:29:12;;;;;;;9.10;4.20;;;4.30;99.90;;;;;;5091119;28;20734;-74
2023/04/27 02:31:37;;;;;;;7.45;4.47;;;4.30;99.90;;;;;;5086632;28;20422;-75
2023/04/27 02:34:03;;;;;;;7.57;4.37;;;4.30;99.90;;;;;;5090749;28;20413;-74
2023/04/27 02:36:30;;;;;;;8.55;4.68;;;4.30;99.90;;;;;;5090473;28;20461;-75
2023/04/27 02:38:56;;;;;;;8.25;4.70;;;4.20;99.90;;;;;;5091807;28;20405;-75
2023/04/27 02:41:21;;;;;;;8.30;4.70;;;4.20;99.90;;;;;;5090092;28;20401;-74
2023/04/27 02:43:49;;;;;;;8.98;4.70;;;4.20;99.90;;;;;;5082974;28;20961;-75
2023/04/27 02:46:15;;;;;;;7.82;4.63;;;4.20;99.90;;;;;;5089662;28;21219;-75
2023/04/27 02:48:40;;;;;;;7.63;4.47;;;4.10;99.90;;;;;;5090889;28;20442;-75
2023/04/27 02:51:06;;;;;;;7.07;4.63;;;4.10;99.90;;;;;;5090422;28;20398;-75
2023/04/27 02:53:32;;;;;;;5.55;4.22;;;4.10;99.90;;;;;;5091629;28;20433;-74
2023/04/27 02:55:58;;;;;;;6.87;4.50;;;4.10;99.90;;;;;;5093335;28;20410;-75
2023/04/27 02:58:23;;;;;;;7.63;4.47;;;4.00;99.90;;;;;;5089647;28;20459;-74
2023/04/27 03:00:55;;;;;;;8.00;4.60;;;4.00;99.90;;;;;;5091959;28;20405;-74
2023/04/27 03:03:22;;;;;;;8.25;4.80;;;4.00;99.90;;;;;;5080636;28;20779;-74
2023/04/27 03:05:47;;;;;;;8.82;4.72;;;4.00;99.90;;;;;;5090782;28;20413;-74
2023/04/27 03:08:13;;;;;;;6.70;4.50;;;3.90;99.90;;;;;;5091800;28;20433;-74
2023/04/27 03:10:39;;;;;;;6.75;4.65;;;3.90;99.90;;;;;;5089259;28;20459;-74
2023/04/27 03:13:05;;;;;;;8.60;5.00;;;3.90;99.90;;;;;;5093082;28;20410;-74
2023/04/27 03:15:31;;;;;;;8.23;4.90;;;3.90;99.90;;;;;;5092989;28;20442;-75
2023/04/27 03:17:56;;;;;;;6.60;4.63;;;3.80;99.90;;;;;;5089128;28;20410;-75
2023/04/27 03:20:22;;;;;;;9.02;5.05;;;3.80;99.90;;;;;;5090858;28;20402;-76
2023/04/27 03:22:47;;;;;;;9.30;5.00;;;3.80;99.90;;;;;;5090389;28;20410;-75
2023/04/27 03:25:13;;;;;;;7.28;4.97;;;3.80;99.90;;;;;;5089899;28;20409;-76
2023/04/27 03:27:39;;;;;;;7.72;4.90;;;3.70;99.90;;;;;;5071505;28;20525;-75
2023/04/27 03:30:06;;;;;;;8.00;5.33;;;3.70;99.90;;;;;;5088107;28;20406;-75
2023/04/27 03:32:31;;;;;;;8.48;5.28;;;3.70;99.90;;;;;;5088655;28;20406;-75
2023/04/27 03:34:57;;;;;;;7.90;5.15;;;3.70;99.90;;;;;;5091514;28;20749;-75
2023/04/27 03:37:23;;;;;;;8.00;5.10;;;3.70;99.90;;;;;;5090267;28;20491;-75
2023/04/27 03:39:48;;;;;;;8.52;5.25;;;3.70;99.90;;;;;;5092230;28;20405;-75
2023/04/27 03:42:14;;;;;;;7.53;5.03;;;3.60;99.90;;;;;;5091199;28;20410;-75
2023/04/27 03:44:39;;;;;;;7.80;5.38;;;3.60;99.90;;;;;;5091295;28;20416;-76
2023/04/27 03:47:08;;;;;;;8.85;5.13;;;3.60;99.90;;;;;;5092315;28;20485;-76
2023/04/27 03:49:36;;;;;;;7.20;5.70;;;3.60;99.90;;;;;;5078675;28;20493;-76
2023/04/27 03:52:02;;;;;;;7.43;5.15;;;3.60;99.90;;;;;;5087880;28;20406;-75
2023/04/27 03:54:29;;;;;;;9.25;6.15;;;3.60;99.90;;;;;;5090194;28;20412;-75
2023/04/27 03:56:55;;;;;;;8.80;5.38;;;3.50;99.90;;;;;;5093001;28;20505;-75
2023/04/27 03:59:21;;;;;;;10.30;5.60;;;3.50;99.90;;;;;;5090499;28;20481;-75
2023/04/27 04:01:46;;;;;;;8.15;5.80;;;3.50;99.90;;;;;;5090144;28;20452;-75
2023/04/27 04:04:12;;;;;;;10.07;5.20;;;3.50;99.90;;;;;;5089809;28;20504;-74
2023/04/27 04:06:37;;;;;;;10.48;6.03;;;3.50;99.90;;;;;;5092094;28;20409;-74
2023/04/27 04:09:03;;;;;;;8.53;5.90;;;3.50;99.90;;;;;;5087940;28;20759;-75
2023/04/27 04:11:29;;;;;;;8.77;5.90;;;3.50;99.90;;;;;;5091580;28;20397;-75
2023/04/27 04:13:54;;;;;;;10.30;5.85;;;3.40;99.90;;;;;;5088634;28;20919;-75
2023/04/27 04:16:20;;;;;;;9.43;5.53;;;3.50;99.90;;;;;;5073248;28;20410;-74
2023/04/27 04:18:46;;;;;;;8.00;5.65;;;3.40;99.90;;;;;;5091062;28;20895;-74
2023/04/27 04:21:11;;;;;;;10.40;5.78;;;3.50;99.90;;;;;;5092260;28;20827;-75
2023/04/27 04:23:39;;;;;;;9.83;6.43;;;3.40;99.90;;;;;;5088277;28;20822;-75
2023/04/27 04:26:05;;;;;;;9.27;5.45;;;3.40;99.90;;;;;;5092195;28;20938;-75
2023/04/27 04:28:31;;;;;;;11.15;6.50;;;3.40;99.90;;;;;;5090859;28;20453;-75
2023/04/27 04:30:58;;;;;;;8.00;6.15;;;3.40;99.90;;;;;;5094663;28;20409;-75
2023/04/27 04:33:25;;;;;;;10.85;6.45;;;3.40;99.90;;;;;;5092208;28;20413;-74
2023/04/27 04:35:50;;;;;;;8.27;6.13;;;3.50;99.90;;;;;;5095641;28;20925;-75
2023/04/27 04:38:16;;;;;;;9.53;6.20;;;3.50;99.90;;;;;;5093258;28;20478;-77
2023/04/27 04:40:42;;;;;;;9.73;6.40;;;3.50;99.90;;;;;;5090000;28;20423;-77
2023/04/27 04:43:08;;;;;;;9.48;6.32;;;3.50;99.90;;;;;;5088589;28;20840;-76
2023/04/27 04:45:33;;;;;;;10.50;6.67;;;3.60;99.90;;;;;;5087111;28;20409;-74
2023/04/27 04:48:03;;;;;;;10.27;6.63;;;3.60;99.90;;;;;;5087157;28;20440;-74
2023/04/27 04:50:29;;;;;;;10.40;6.47;;;3.60;99.90;;;;;;5086895;28;20414;-75
2023/04/27 04:52:55;;;;;;;10.33;6.20;;;3.60;99.90;;;;;;5078881;28;20461;-75
2023/04/27 04:55:21;;;;;;;8.67;6.37;;;3.60;99.90;;;;;;5091687;28;20410;-75
2023/04/27 04:57:46;;;;;;;11.20;6.73;;;3.70;99.90;;;;;;5088560;28;20467;-75
2023/04/27 05:00:13;;;;;;;9.57;6.28;;;3.70;99.90;;;;;;5070488;28;20900;-75
2023/04/27 05:02:39;;;;;;;9.68;6.00;;;3.80;99.90;;;;;;5087245;28;20463;-75
2023/04/27 05:05:05;;;;;;;9.35;5.88;;;3.80;99.90;;;;;;5088461;28;20398;-77
2023/04/27 05:07:31;;;;;;;9.35;5.93;;;3.80;99.90;;;;;;5088569;28;20434;-77
2023/04/27 05:09:57;;;;;;;10.52;6.03;;;3.80;99.90;;;;;;5089641;28;20412;-77
2023/04/27 05:12:23;;;;;;;10.05;6.32;;;3.80;99.90;;;;;;5087764;28;20417;-78
2023/04/27 05:14:49;;;;;;;9.47;6.27;;;3.80;99.90;;;;;;5088057;28;20467;-77
2023/04/27 05:17:15;;;;;;;9.98;6.15;;;3.90;99.90;;;;;;5070925;28;20398;-76
2023/04/27 05:19:41;;;;;;;8.90;5.47;;;3.90;99.90;;;;;;5087573;28;20763;-76
2023/04/27 05:22:06;;;;;;;9.30;5.73;;;3.90;99.90;;;;;;5087533;28;20459;-76
2023/04/27 05:24:32;;;;;;;9.38;5.93;;;3.90;99.90;;;;;;5087476;28;20413;-77
2023/04/27 05:26:58;;;;;;;8.47;5.50;;;3.90;99.90;;;;;;5087589;28;20448;-77
2023/04/27 05:29:23;;;;;;;7.68;5.57;;;4.00;99.90;;;;;;5088388;28;20468;-77
2023/04/27 05:31:49;;;;;;;9.30;5.95;;;4.10;99.90;;;;;;5087876;28;20819;-77
2023/04/27 05:34:15;;;;;;;9.87;5.57;;;4.10;99.90;;;;;;5089299;28;20406;-76
2023/04/27 05:36:41;;;;;;;9.60;5.60;;;4.10;99.90;;;;;;5087194;28;20413;-77
2023/04/27 05:39:06;;;;;;;7.65;5.22;;;4.20;99.90;;;;;;5092211;28;20448;-76
2023/04/27 05:41:32;;;;;;;8.20;5.00;;;4.20;99.90;;;;;;5087076;28;20410;-77
2023/04/27 05:43:58;;;;;;;8.77;5.47;;;4.30;99.90;;;;;;5088044;28;20784;-76
2023/04/27 05:46:23;;;;;;;9.95;5.63;;;4.30;99.90;;;;;;5086767;28;20923;-76
2023/04/27 05:48:49;;;;;;;8.57;5.53;;;4.30;99.90;;;;;;5086982;28;20429;-77
2023/04/27 05:51:15;;;;;;;10.05;5.50;;;4.40;99.90;;;;;;5088422;28;20402;-76
2023/04/27 05:53:41;;;;;;;8.65;5.85;;;4.50;99.90;;;;;;5087691;28;20485;-76
2023/04/27 05:56:07;;;;;;;11.93;5.90;;;4.60;99.90;;;;;;5086679;28;20398;-76
2023/04/27 05:58:33;;;;;;;10.48;5.82;;;4.60;99.90;;;;;;5091705;28;20405;-77
2023/04/27 06:01:00;;;;;;;10.35;6.15;;;4.70;99.90;;;;;;5087844;28;20406;-77
2023/04/27 06:03:26;;;;;;;10.77;5.95;;;4.80;99.90;;;;;;5087279;28;20394;-76
2023/04/27 06:05:58;;;;;;;9.53;5.90;;;4.90;99.90;;;;;;5087513;28;20413;-76
2023/04/27 06:08:24;;;;;;;10.73;6.80;;;4.90;99.90;;;;;;5085810;28;20438;-76
2023/04/27 06:10:50;;;;;;;9.63;6.45;;;5.00;99.90;;;;;;5090245;28;20405;-76
2023/04/27 06:13:17;;;;;;;8.55;5.63;;;5.10;99.90;;;;;;5089939;28;20402;-77
2023/04/27 06:15:42;;;;;;;10.18;5.90;;;5.20;99.90;;;;;;5088717;28;20408;-76
2023/04/27 06:18:08;;;;;;;11.20;6.97;;;5.20;99.90;;;;;;5088087;28;20410;-76
2023/04/27 06:20:35;;;;;;;10.27;6.13;;;5.30;99.90;;;;;;5090484;28;20802;-78
2023/04/27 06:23:00;;;;;;;9.82;6.13;;;5.40;99.90;;;;;;5074384;28;20412;-77
2023/04/27 06:25:27;;;;;;;8.38;5.82;;;5.40;99.90;;;;;;5090023;28;20764;-76
2023/04/27 06:27:54;;;;;;;8.70;5.50;;;5.50;99.90;;;;;;5091056;28;20432;-76
2023/04/27 06:30:20;;;;;;;9.80;5.85;;;5.60;99.90;;;;;;5090599;28;20851;-76
2023/04/27 06:32:45;;;;;;;11.60;5.57;;;5.70;99.90;;;;;;5093924;28;20400;-77
2023/04/27 06:35:11;;;;;;;9.67;5.10;;;5.80;99.90;;;;;;5088852;28;20397;-76
2023/04/27 06:37:36;;;;;;;8.93;5.20;;;5.90;99.90;;;;;;5089762;28;20468;-77
2023/04/27 06:40:02;;;;;;;8.90;4.93;;;5.90;99.90;;;;;;5090317;28;20410;-76
2023/04/27 06:42:28;;;;;;;8.00;5.13;;;6.00;99.90;;;;;;5091843;28;20459;-77
2023/04/27 06:44:55;;;;;;;9.73;5.60;;;6.10;99.90;;;;;;5091222;28;20830;-76
2023/04/27 06:47:21;;;;;;;8.80;5.00;;;6.20;99.90;;;;;;5090217;28;20419;-76
2023/04/27 06:49:47;;;;;;;7.47;4.50;;;6.30;99.90;;;;;;5090763;28;20416;-76
2023/04/27 06:52:12;;;;;;;7.30;4.60;;;6.30;99.90;;;;;;5089361;28;20907;-77
2023/04/27 06:54:38;;;;;;;8.33;5.07;;;6.40;99.90;;;;;;5089311;28;20456;-76
2023/04/27 06:57:05;;;;;;;9.30;5.13;;;6.40;99.90;;;;;;5090836;28;20399;-76
2023/04/27 06:59:31;;;;;;;8.65;4.90;;;6.50;99.90;;;;;;5090598;28;20968;-76
2023/04/27 07:01:56;;;;;;;8.07;4.87;;;6.50;99.90;;;;;;5089746;28;20413;-77
2023/04/27 07:04:22;;;;;;;8.85;4.68;;;6.60;99.90;;;;;;5089976;28;20429;-76
2023/04/27 07:06:48;;;;;;;7.60;4.78;;;6.70;99.90;;;;;;5089375;28;20447;-76
2023/04/27 07:09:14;;;;;;;8.10;4.50;;;6.70;99.90;;;;;;5089050;28;20410;-77
2023/04/27 07:11:39;;;;;;;7.45;4.40;;;6.80;99.90;;;;;;5089495;28;20401;-76
2023/04/27 07:14:05;;;;;;;9.35;4.43;;;6.80;99.90;;;;;;5072123;28;20435;-77
2023/04/27 07:16:31;;;;;;;7.10;4.20;;;6.90;99.90;;;;;;5091161;28;20410;-76
2023/04/27 07:18:56;;;;;;;12.43;4.07;;;7.00;99.90;;;;;;5090147;28;20451;-76
2023/04/27 07:21:22;;;;;;;6.40;3.77;;;7.00;99.90;;;;;;5090570;28;20775;-76
2023/04/27 07:23:48;;;;;;;6.57;3.47;;;7.10;99.90;;;;;;5089508;28;20900;-76
2023/04/27 07:26:13;;;;;;;6.70;3.08;;;7.10;99.90;;;;;;5088082;28;20402;-76
2023/04/27 07:28:39;;;;;;;5.00;3.10;;;7.20;99.90;;;;;;5088834;28;20445;-76
2023/04/27 07:31:05;;;;;;;7.38;3.40;;;7.30;99.90;;;;;;5071716;28;20441;-76
2023/04/27 07:33:32;;;;;;;5.72;2.92;;;7.40;99.90;;;;;;5088489;28;20413;-76
2023/04/27 07:35:58;;;;;;;6.85;3.00;;;7.50;99.90;;;;;;5088150;28;20521;-75
2023/04/27 07:38:24;;;;;;;5.28;2.30;;;7.50;99.90;;;;;;5089622;28;20402;-76
2023/04/27 07:40:51;;;;;;;6.68;2.60;;;7.50;99.90;;;;;;5088465;28;20783;-76
2023/04/27 07:43:17;;;;;;;6.23;2.40;;;7.60;99.90;;;;;;5086304;28;20412;-77
2023/04/27 07:45:44;;;;;;;4.57;2.57;;;7.70;99.90;;;;;;5080301;28;20461;-76
2023/04/27 07:48:10;;;;;;;8.53;2.70;;;7.80;99.90;;;;;;5062744;28;20440;-76
2023/04/27 07:50:36;;;;;;;7.07;2.70;;;7.80;99.90;;;;;;5078752;28;20413;-77
2023/04/27 07:53:02;;;;;;;4.93;2.40;;;7.90;99.90;;;;;;5089714;28;20804;-77
2023/04/27 07:55:28;;;;;;;6.57;2.85;;;7.90;99.90;;;;;;5089735;28;20443;-77
2023/04/27 07:57:56;;;;;;;5.85;2.60;;;8.00;99.90;;;;;;5088956;28;20414;-73
2023/04/27 08:00:24;;;;;;;5.87;3.07;;;8.10;99.90;;;;;;5073049;28;20465;-74
2023/04/27 08:02:51;;;;;;;6.45;2.83;;;8.10;99.90;;;;;;5090527;28;20421;-75
2023/04/27 08:05:16;;;;;;;4.88;2.25;;;8.20;99.90;;;;;;5085589;28;20406;-74
2023/04/27 08:07:42;;;;;;;5.27;2.60;;;8.30;99.90;;;;;;5080442;28;20438;-75
2023/04/27 08:10:08;;;;;;;6.40;2.38;;;8.40;99.90;;;;;;5090247;28;20923;-75
2023/04/27 08:12:33;;;;;;;5.80;2.37;;;8.40;99.90;;;;;;5087497;28;20485;-75
2023/04/27 08:14:59;;;;;;;5.60;2.50;;;8.50;99.90;;;;;;5076626;28;20414;-76
2023/04/27 08:17:25;;;;;;;7.20;2.70;;;8.60;99.90;;;;;;5091102;28;20414;-75
2023/04/27 08:19:51;;;;;;;6.13;2.42;;;8.70;99.90;;;;;;5094175;28;20425;-76
2023/04/27 08:22:17;;;;;;;6.78;2.40;;;8.90;99.90;;;;;;5089945;28;20420;-75
2023/04/27 08:24:42;;;;;;;4.40;2.50;;;9.00;99.90;;;;;;5091466;28;20440;-73
2023/04/27 08:27:08;;;;;;;5.45;2.47;;;9.10;99.90;;;;;;5091110;28;20422;-73
2023/04/27 08:29:34;;;;;;;4.80;2.20;;;9.10;99.90;;;;;;5072700;28;20475;-75
2023/04/27 08:32:03;;;;;;;7.45;2.70;;;9.20;99.90;;;;;;5088149;28;20420;-75
2023/04/27 08:34:30;;;;;;;4.15;2.10;;;9.30;99.90;;;;;;5088596;28;20418;-75
2023/04/27 08:36:55;;;;;;;3.42;1.92;;;9.50;99.90;;;;;;5072608;28;20406;-75
2023/04/27 08:39:22;;;;;;;5.33;1.73;;;9.60;99.90;;;;;;5092081;28;20415;-75
2023/04/27 08:41:48;;;;;;;5.72;2.00;;;9.90;99.90;;;;;;5086487;28;20418;-74
2023/04/27 08:44:14;;;;;;;2.83;1.60;;;10.10;99.90;;;;;;5094450;28;20426;-73
2023/04/27 08:46:40;;;;;;;3.50;1.70;;;10.30;99.90;;;;;;5090700;28;20772;-75
2023/04/27 08:49:06;;;;;;;4.47;1.95;;;10.50;99.90;;;;;;5094588;28;20428;-75
2023/04/27 08:51:33;;;;;;;4.47;1.85;;;10.70;99.90;;;;;;5087213;28;20418;-75
2023/04/27 08:53:59;;;;;;;3.58;1.70;;;10.90;99.90;;;;;;5089641;28;20396;-75
2023/04/27 08:56:26;;;;;;;4.85;1.70;;;10.90;99.90;;;;;;5087159;28;20491;-76
2023/04/27 08:58:53;;;;;;;4.28;1.90;;;11.00;99.90;;;;;;5086096;28;20413;-76
2023/04/27 09:01:20;;;;;;;3.85;1.83;;;11.00;99.90;;;;;;5087002;28;20402;-75
2023/04/27 09:03:46;;;;;;;4.38;1.60;;;11.00;99.90;;;;;;5090974;28;20445;-76
2023/04/27 09:06:13;;;;;;;6.65;2.22;;;10.90;99.90;;;;;;5086646;28;20437;-76
2023/04/27 09:08:49;;;;;;;4.40;1.80;;;10.90;99.90;;;;;;5086547;28;21018;-75
2023/04/27 09:11:27;;;;;;;5.28;2.15;;;10.80;99.90;;;;;;5089975;28;20418;-76
2023/04/27 09:13:53;;;;;;;4.07;2.00;;;10.90;99.90;;;;;;5088563;28;20429;-76
2023/04/27 09:16:23;;;;;;;5.03;2.03;;;10.90;99.90;;;;;;5092031;28;20406;-76
2023/04/27 09:18:48;;;;;;;4.80;1.95;;;11.10;99.90;;;;;;5089886;28;20508;-76
2023/04/27 09:21:26;;;;;;;6.10;2.00;;;11.30;99.90;;;;;;5092332;28;20502;-76
2023/04/27 09:23:52;;;;;;;4.88;2.05;;;11.50;99.90;;;;;;5059586;28;21009;-76
2023/04/27 09:26:22;;;;;;;4.70;2.13;;;11.60;99.90;;;;;;5075951;28;20408;-74
2023/04/27 09:28:49;;;;;;;5.97;2.40;;;11.60;99.90;;;;;;5089745;28;20434;-74
2023/04/27 09:31:15;;;;;;;5.75;2.33;;;11.70;99.90;;;;;;5092909;28;20420;-74
2023/04/27 09:33:43;;;;;;;6.28;2.10;;;11.80;99.90;;;;;;5090028;28;20406;-74
2023/04/27 09:36:09;;;;;;;4.90;2.10;;;11.80;99.90;;;;;;5095030;28;20408;-75
2023/04/27 09:38:34;;;;;;;8.43;2.10;;;11.70;99.90;;;;;;5091363;28;20807;-75
2023/04/27 09:41:00;;;;;;;4.18;2.08;;;11.70;99.90;;;;;;5094627;28;20411;-75
2023/04/27 09:43:27;;;;;;;5.32;2.30;;;11.70;99.90;;;;;;5091432;28;20398;-75
2023/04/27 09:45:57;;;;;;;4.93;2.25;;;11.60;99.90;;;;;;5090451;28;20407;-75
2023/04/27 09:48:25;;;;;;;6.68;2.63;;;11.50;99.90;;;;;;5089923;28;20819;-76
2023/04/27 09:50:51;;;;;;;4.88;2.33;;;11.50;99.90;;;;;;5091485;28;20993;-75
2023/04/27 09:53:28;;;;;;;4.47;2.35;;;11.70;99.90;;;;;;5086837;28;20464;-75
2023/04/27 09:56:27;;;;;;;5.15;2.33;;;11.80;99.90;;;;;;5087177;28;20430;-75
2023/04/27 09:59:17;;;;;;;4.53;2.20;;;12.10;99.90;;;;;;5069383;28;20426;-75
2023/04/27 10:01:47;;;;;;;5.15;2.63;;;12.20;99.90;;;;;;5086060;28;20425;-75
2023/04/27 10:04:43;;;;;;;4.80;2.38;;;12.30;99.90;;;;;;5086001;28;20426;-75
2023/04/27 10:07:14;;;;;;;5.05;2.50;;;12.20;99.90;;;;;;5085900;28;20508;-76
2023/04/27 10:09:45;;;;;;;5.43;2.43;;;12.10;99.90;;;;;;5086851;28;20497;-75
2023/04/27 10:12:16;;;;;;;4.63;2.10;;;12.00;99.90;;;;;;5087834;28;20509;-75
2023/04/27 10:14:56;;;;;;;5.60;2.47;;;12.00;99.90;;;;;;5091310;28;20425;-75
2023/04/27 10:17:30;;;;;;;4.50;2.60;;;12.00;99.90;;;;;;5080926;28;20416;-75
2023/04/27 10:20:08;;;;;;;5.40;2.65;;;12.00;99.90;;;;;;5089968;28;20449;-75
2023/04/27 10:22:38;;;;;;;6.45;2.50;;;11.90;99.90;;;;;;5090374;28;20779;-75
2023/04/27 10:25:15;;;;;;;4.15;2.30;;;11.70;99.90;;;;;;5090125;28;20496;-75
2023/04/27 10:27:41;;;;;;;4.32;2.33;;;11.60;99.90;;;;;;5090396;28;20434;-75
2023/04/27 10:30:11;;;;;;;4.82;2.70;;;11.50;99.90;;;;;;5090895;28;20414;-75
2023/04/27 10:32:37;;;;;;;5.60;2.70;;;11.30;99.90;;;;;;5091015;28;20418;-76
2023/04/27 10:35:08;;;;;;;5.73;2.90;;;11.20;99.90;;;;;;5088936;28;20412;-75
2023/04/27 10:37:42;;;;;;;5.47;2.50;;;11.20;99.90;;;;;;5085420;28;20825;-75
2023/04/27 10:40:13;;;;;;;5.10;2.50;;;11.10;99.90;;;;;;5082091;28;20913;-75
2023/04/27 10:42:40;;;;;;;4.83;2.47;;;11.00;99.90;;;;;;5081700;28;20922;-75
2023/04/27 10:45:06;;;;;;;7.78;3.83;;;10.90;99.90;;;;;;5062739;28;20927;-75
2023/04/27 10:47:40;;;;;;;6.97;3.13;;;10.90;99.90;;;;;;5089864;28;20933;-75
2023/04/27 10:50:10;;;;;;;6.82;3.03;;;10.90;99.90;;;;;;5077819;28;20501;-75
2023/04/27 10:52:40;;;;;;;6.30;2.67;;;10.90;99.90;;;;;;5090104;28;21115;-75
2023/04/27 10:55:16;;;;;;;5.85;2.80;;;11.00;99.90;;;;;;5077030;28;20402;-76
2023/04/27 10:57:54;;;;;;;7.53;3.08;;;10.90;99.90;;;;;;5087345;28;20619;-75
2023/04/27 11:00:30;;;;;;;6.00;3.17;;;11.00;99.90;;;;;;5091833;28;20445;-78
2023/04/27 11:03:08;;;;;;;6.68;3.08;;;11.10;99.90;;;;;;5084374;28;20418;-75
2023/04/27 11:05:34;;;;;;;9.05;2.95;;;11.20;99.90;;;;;;5080791;28;20421;-75
2023/04/27 11:08:05;;;;;;;6.50;3.28;;;11.30;99.90;;;;;;5084755;28;20431;-75
2023/04/27 11:10:31;;;;;;;6.27;3.07;;;11.30;99.90;;;;;;5078154;28;20414;-75
2023/04/27 11:12:57;;;;;;;6.63;3.05;;;11.40;99.90;;;;;;5081777;28;20409;-75
2023/04/27 11:15:23;;;;;;;5.43;3.00;;;11.40;99.90;;;;;;5074495;28;20438;-75
2023/04/27 11:17:49;;;;;;;5.13;2.60;;;11.40;99.90;;;;;;5087079;28;21003;-75
2023/04/27 11:20:24;;;;;;;5.60;3.13;;;11.40;99.90;;;;;;5086368;28;20421;-75
2023/04/27 11:22:50;;;;;;;4.40;2.78;;;11.40;99.90;;;;;;5092817;28;20398;-71
2023/04/27 11:25:15;;;;;;;6.20;3.00;;;11.40;99.90;;;;;;5092944;28;20442;-73
2023/04/27 11:27:41;;;;;;;10.15;6.50;;;11.40;99.90;;;;;;5094084;28;20434;-73
2023/04/27 11:30:19;;;;;;;7.23;3.70;;;11.30;99.90;;;;;;5092545;28;20803;-73
2023/04/27 11:32:44;;;;;;;6.28;3.30;;;11.40;99.90;;;;;;5091751;28;20422;-75
2023/04/27 11:35:10;;;;;;;6.00;2.80;;;11.50;99.90;;;;;;5091539;28;20405;-74
2023/04/27 11:37:36;;;;;;;5.53;3.20;;;11.60;99.90;;;;;;5095858;28;20405;-74
2023/04/27 11:40:03;;;;;;;6.23;3.30;;;11.80;99.90;;;;;;5090166;28;20417;-74
2023/04/27 11:42:30;;;;;;;6.65;3.38;;;12.20;99.90;;;;;;5093642;28;20424;-74
2023/04/27 11:45:04;;;;;;;7.50;3.40;;;12.50;99.90;;;;;;5092797;28;20409;-74
2023/04/27 11:47:32;;;;;;;7.38;3.40;;;12.70;99.90;;;;;;5094599;28;20468;-74
2023/04/27 11:49:59;;;;;;;7.38;3.33;;;12.80;98.40;;;;;;5087828;28;20402;-73
2023/04/27 11:52:33;;;;;;;7.28;3.28;;;12.80;98.90;;;;;;5091838;28;20494;-74
2023/04/27 11:55:01;;;;;;;8.65;3.50;;;12.80;98.00;;;;;;5089249;28;20503;-74
2023/04/27 11:57:28;;;;;;;6.28;3.15;;;12.50;97.60;;;;;;5087547;28;20416;-74
2023/04/27 11:59:56;;;;;;;5.72;2.90;;;12.40;98.20;;;;;;5089456;28;20422;-74
2023/04/27 12:02:22;;;;;;;6.45;2.97;;;12.30;98.70;;;;;;5085391;28;20413;-73
2023/04/27 12:04:49;;;;;;;6.72;4.07;;;12.30;99.10;;;;;;5089309;28;20410;-74
2023/04/27 12:07:15;;;;;;;6.78;3.30;;;12.20;98.90;;;;;;5085989;28;20414;-74
2023/04/27 12:09:41;;;;;;;6.28;3.08;;;12.20;99.10;;;;;;5087666;28;20417;-74
2023/04/27 12:12:07;;;;;;;5.65;3.35;;;12.10;99.70;;;;;;5090226;28;20497;-74
2023/04/27 12:14:33;;;;;;;7.75;3.25;;;12.00;99.20;;;;;;5089068;28;20410;-74
2023/04/27 12:16:58;;;;;;;4.90;3.60;;;11.90;99.20;;;;;;5088786;28;20445;-75
2023/04/27 12:19:27;;;;;;;7.13;3.23;;;11.90;99.10;;;;;;5088273;28;20418;-73
2023/04/27 12:21:52;;;;;;;5.57;3.30;;;11.80;99.70;;;;;;5090954;28;20472;-74
2023/04/27 12:24:19;;;;;;;7.25;3.50;;;11.80;99.90;;;;;;5089785;28;20501;-74
2023/04/27 12:26:45;;;;;;;6.47;3.08;;;11.80;99.90;;;;;;5090999;28;20903;-74
2023/04/27 12:29:11;;;;;;;6.32;3.10;;;11.80;99.90;;;;;;5090256;28;20520;-74
2023/04/27 12:31:37;;;;;;;6.70;3.20;;;11.80;99.90;;;;;;5090031;28;20943;-74
2023/04/27 12:34:02;;;;;;;5.80;3.25;;;11.80;99.90;;;;;;5087039;28;20972;-74
2023/04/27 12:36:28;;;;;;;7.47;3.27;;;11.80;99.90;;;;;;5091571;28;20433;-74
2023/04/27 12:38:59;;;;;;;5.57;3.40;;;11.80;99.90;;;;;;5087811;28;20926;-74
2023/04/27 12:41:25;;;;;;;7.13;3.20;;;11.80;99.90;;;;;;5089397;28;20410;-74
2023/04/27 12:43:51;;;;;;;7.50;3.95;;;11.80;99.90;;;;;;5090049;28;20433;-76
2023/04/27 12:46:17;;;;;;;6.72;3.60;;;11.80;99.90;;;;;;5089427;28;20428;-73
2023/04/27 12:48:43;;;;;;;7.80;3.93;;;11.80;99.90;;;;;;5090893;28;20509;-76
2023/04/27 12:51:09;;;;;;;5.90;3.70;;;11.80;99.90;;;;;;5086792;28;20417;-74